There are multiple Weather-warnings   Click here for more information


Meteo18 Weather Cam more information Meteo18 Weather Cam


warning for Thunderstorms more information blitzortung!


Rain radar more information rain snow radar


Visit our other weather sites:

Template documentation
and downloads

And another site



Weather Underground History page Text

Daily Summary for October 31, 2016 Units:  Metric    English   Both
« Previous Day
Next Day »
Daily Weekly Monthly Yearly Custom
  High: Low: Average:
Temperature: 17.5 °C 5.8 °C 10.4 °C
Dew Point: 11.5 °C 4.9 °C 8.1 °C
Humidity: 97 % 65 % 86 %
Wind Speed: 9.7 km/h 0.0 km/h 1.8 km/h
Wind Gust: 16.1 km/h - -
Wind:- - ENE
Pressure: 1026.0 hPa 1023.6 hPa -
Precipitation: 0.3 mm    
Historical Graphs
 
 
Tabular Data for October 31, 2016
Time Temperature Dew Point Pressure Wind Wind Speed Wind Gust Humidity Rainfall Rate (Hourly)
00:02 10.2 °C 8.1 °C 1026.0 hPa NNE 6.4 km/h 16.1 km/h 87 % 0.0 mm
00:07 10.2 °C 8.3 °C 1026.0 hPa NE 3.2 km/h 14.5 km/h 88 % 0.0 mm
00:17 10.1 °C 8.2 °C 1026.0 hPa NE 6.4 km/h 14.5 km/h 88 % 0.0 mm
00:22 10.1 °C 8.2 °C 1026.0 hPa NNE 1.6 km/h 14.5 km/h 88 % 0.0 mm
00:37 10.2 °C 8.3 °C 1025.6 hPa NE 6.4 km/h 14.5 km/h 88 % 0.0 mm
00:42 10.2 °C 8.3 °C 1025.6 hPa NE 8.0 km/h 14.5 km/h 88 % 0.0 mm
00:47 10.1 °C 8.2 °C 1025.6 hPa NNE 6.4 km/h 14.5 km/h 88 % 0.0 mm
01:02 9.7 °C 8.0 °C 1025.6 hPa Calm   12.9 km/h 89 % 0.0 mm
01:12 9.4 °C 7.7 °C 1025.6 hPa Calm   12.9 km/h 89 % 0.0 mm
01:17 9.3 °C 7.7 °C 1025.6 hPa Calm   6.4 km/h 90 % 0.0 mm
01:22 9.2 °C 7.6 °C 1025.6 hPa NNE 1.6 km/h 6.4 km/h 90 % 0.0 mm
01:32 8.9 °C 7.3 °C 1025.6 hPa Calm   3.2 km/h 90 % 0.0 mm
01:42 8.7 °C 7.3 °C 1025.6 hPa NW 1.6 km/h 4.8 km/h 91 % 0.0 mm
01:47 8.7 °C 7.5 °C 1025.6 hPa NW 1.6 km/h 3.2 km/h 92 % 0.0 mm
01:52 8.7 °C 7.3 °C 1025.6 hPa WNW 1.6 km/h 3.2 km/h 91 % 0.0 mm
01:57 8.7 °C 7.3 °C 1025.6 hPa Calm   3.2 km/h 91 % 0.0 mm
02:02 8.7 °C 7.3 °C 1025.6 hPa NW 1.6 km/h 3.2 km/h 91 % 0.0 mm
02:12 8.6 °C 7.4 °C 1025.6 hPa NW 1.6 km/h 3.2 km/h 92 % 0.0 mm
02:17 8.6 °C 7.4 °C 1025.6 hPa Calm   3.2 km/h 92 % 0.0 mm
02:27 8.4 °C 7.2 °C 1025.6 hPa Calm   1.6 km/h 92 % 0.0 mm
02:32 8.4 °C 7.2 °C 1025.3 hPa Calm   1.6 km/h 92 % 0.0 mm
02:42 8.4 °C 7.2 °C 1025.3 hPa Calm   1.6 km/h 92 % 0.0 mm
02:52 8.0 °C 6.8 °C 1025.3 hPa NNE 1.6 km/h 3.2 km/h 92 % 0.0 mm
03:12 8.2 °C 7.1 °C 1025.3 hPa Calm   4.8 km/h 93 % 0.0 mm
03:17 8.4 °C 7.2 °C 1025.3 hPa NE 3.2 km/h 3.2 km/h 92 % 0.0 mm
03:22 8.4 °C 7.2 °C 1024.9 hPa NE 1.6 km/h 4.8 km/h 92 % 0.0 mm
03:32 8.2 °C 6.8 °C 1024.9 hPa Calm   4.8 km/h 91 % 0.0 mm
03:42 7.9 °C 6.7 °C 1024.9 hPa Calm   4.8 km/h 92 % 0.0 mm
03:52 7.8 °C 6.6 °C 1024.9 hPa North 1.6 km/h 1.6 km/h 92 % 0.0 mm
04:02 7.9 °C 6.8 °C 1024.9 hPa NE 4.8 km/h 4.8 km/h 93 % 0.0 mm
04:12 8.2 °C 7.0 °C 1024.9 hPa NE 4.8 km/h 6.4 km/h 92 % 0.0 mm
04:17 8.2 °C 6.8 °C 1024.9 hPa NE 1.6 km/h 9.7 km/h 91 % 0.0 mm
04:22 8.2 °C 6.8 °C 1024.9 hPa NNE 9.7 km/h 9.7 km/h 91 % 0.0 mm
04:32 8.1 °C 6.7 °C 1024.9 hPa NE 8.0 km/h 12.9 km/h 91 % 0.0 mm
04:42 7.9 °C 6.5 °C 1024.9 hPa NE 3.2 km/h 12.9 km/h 91 % 0.0 mm
04:52 7.8 °C 6.4 °C 1025.3 hPa NE 9.7 km/h 12.9 km/h 91 % 0.0 mm
05:02 7.7 °C 6.5 °C 1024.9 hPa NE 3.2 km/h 11.3 km/h 92 % 0.0 mm
05:12 7.6 °C 6.4 °C 1024.9 hPa NE 4.8 km/h 9.7 km/h 92 % 0.0 mm
05:17 7.6 °C 6.4 °C 1024.9 hPa Calm   9.7 km/h 92 % 0.0 mm
05:22 7.6 °C 6.4 °C 1025.3 hPa NE 3.2 km/h 11.3 km/h 92 % 0.0 mm
05:32 7.6 °C 6.4 °C 1025.3 hPa NE 4.8 km/h 8.0 km/h 92 % 0.0 mm
05:37 7.6 °C 6.4 °C 1025.3 hPa NE 3.2 km/h 8.0 km/h 92 % 0.0 mm
05:47 7.4 °C 6.2 °C 1025.3 hPa Calm   11.3 km/h 92 % 0.0 mm
05:52 7.3 °C 6.1 °C 1025.3 hPa Calm   6.4 km/h 92 % 0.0 mm
05:57 7.2 °C 6.0 °C 1025.3 hPa Calm   6.4 km/h 92 % 0.0 mm
06:02 7.1 °C 5.9 °C 1025.3 hPa Calm   1.6 km/h 92 % 0.0 mm
06:12 6.9 °C 5.7 °C 1025.3 hPa Calm   1.6 km/h 92 % 0.0 mm
06:17 6.9 °C 5.8 °C 1024.9 hPa Calm   1.6 km/h 93 % 0.0 mm
06:22 6.9 °C 5.8 °C 1025.3 hPa Calm   1.6 km/h 93 % 0.0 mm
06:27 6.8 °C 5.7 °C 1025.3 hPa Calm   1.6 km/h 93 % 0.0 mm
06:32 6.7 °C 5.6 °C 1025.3 hPa NE 3.2 km/h 3.2 km/h 93 % 0.0 mm
06:42 6.8 °C 5.9 °C 1024.9 hPa NNE 3.2 km/h 4.8 km/h 94 % 0.0 mm
06:47 6.7 °C 5.6 °C 1024.9 hPa NNE 3.2 km/h 4.8 km/h 93 % 0.0 mm
06:52 6.6 °C 5.5 °C 1025.3 hPa NE 1.6 km/h 6.4 km/h 93 % 0.0 mm
06:57 6.5 °C 5.4 °C 1025.3 hPa NE 1.6 km/h 6.4 km/h 93 % 0.0 mm
07:02 6.4 °C 5.5 °C 1025.3 hPa NNE 3.2 km/h 6.4 km/h 94 % 0.0 mm
07:12 6.5 °C 5.6 °C 1025.3 hPa NNE 3.2 km/h 6.4 km/h 94 % 0.0 mm
07:17 6.4 °C 5.5 °C 1025.3 hPa Calm   6.4 km/h 94 % 0.0 mm
07:22 6.3 °C 5.4 °C 1025.3 hPa NE 4.8 km/h 6.4 km/h 94 % 0.0 mm
07:27 6.2 °C 5.3 °C 1025.3 hPa Calm   6.4 km/h 94 % 0.0 mm
07:32 6.1 °C 5.2 °C 1025.3 hPa Calm   4.8 km/h 94 % 0.3 mm
07:42 5.8 °C 4.9 °C 1025.3 hPa NNE 1.6 km/h 3.2 km/h 94 % 0.3 mm
07:52 5.8 °C 5.1 °C 1025.3 hPa NNE 3.2 km/h 3.2 km/h 95 % 0.3 mm
07:57 5.8 °C 5.1 °C 1025.3 hPa NNE 4.8 km/h 4.8 km/h 95 % 0.3 mm
08:02 5.9 °C 5.2 °C 1025.3 hPa NNE 6.4 km/h 6.4 km/h 95 % 0.3 mm
08:07 6.1 °C 5.4 °C 1025.3 hPa NNE 4.8 km/h 4.8 km/h 95 % 0.3 mm
08:12 6.2 °C 5.5 °C 1025.3 hPa NNE 4.8 km/h 6.4 km/h 95 % 0.3 mm
08:17 6.3 °C 5.6 °C 1025.6 hPa NE 4.8 km/h 6.4 km/h 95 % 0.3 mm
08:22 6.3 °C 5.6 °C 1025.6 hPa NNE 4.8 km/h 6.4 km/h 95 % 0.3 mm
08:32 6.6 °C 5.9 °C 1025.6 hPa NNE 3.2 km/h 4.8 km/h 95 % 0.0 mm
08:42 6.7 °C 6.0 °C 1025.6 hPa NNE 3.2 km/h 4.8 km/h 95 % 0.0 mm
09:02 7.6 °C 6.7 °C 1025.6 hPa NE 3.2 km/h 3.2 km/h 94 % 0.0 mm
09:12 7.9 °C 6.7 °C 1025.6 hPa ENE 3.2 km/h 3.2 km/h 92 % 0.0 mm
09:17 8.2 °C 7.0 °C 1025.6 hPa ENE 1.6 km/h 4.8 km/h 92 % 0.0 mm
09:22 8.3 °C 6.9 °C 1025.6 hPa ENE 3.2 km/h 4.8 km/h 91 % 0.0 mm
09:32 8.7 °C 7.3 °C 1025.6 hPa NE 1.6 km/h 6.4 km/h 91 % 0.0 mm
09:42 8.9 °C 7.3 °C 1025.6 hPa East 1.6 km/h 6.4 km/h 90 % 0.0 mm
09:47 9.1 °C 7.4 °C 1025.6 hPa East 1.6 km/h 4.8 km/h 89 % 0.0 mm
09:52 9.2 °C 7.5 °C 1025.6 hPa East 1.6 km/h 4.8 km/h 89 % 0.0 mm
10:02 9.3 °C 7.4 °C 1025.6 hPa ESE 1.6 km/h 4.8 km/h 88 % 0.0 mm
10:12 9.5 °C 7.6 °C 1025.6 hPa East 1.6 km/h 6.4 km/h 88 % 0.0 mm
10:17 9.6 °C 7.7 °C 1025.6 hPa ENE 1.6 km/h 6.4 km/h 88 % 0.0 mm
10:22 9.7 °C 7.6 °C 1025.6 hPa ESE 1.6 km/h 6.4 km/h 87 % 0.0 mm
10:32 9.8 °C 7.6 °C 1025.6 hPa NE 1.6 km/h 8.0 km/h 86 % 0.0 mm
10:47 10.5 °C 8.3 °C 1025.3 hPa Calm   4.8 km/h 86 % 0.0 mm
10:52 10.8 °C 8.6 °C 1025.3 hPa Calm   4.8 km/h 86 % 0.0 mm
11:02 11.1 °C 8.3 °C 1025.3 hPa Calm   1.6 km/h 83 % 0.0 mm
11:12 11.1 °C 8.5 °C 1025.3 hPa Calm   3.2 km/h 84 % 0.0 mm
11:22 11.3 °C 8.0 °C 1025.3 hPa ENE 8.0 km/h 8.0 km/h 80 % 0.0 mm
11:32 11.6 °C 8.6 °C 1025.3 hPa Calm   11.3 km/h 82 % 0.0 mm
11:37 11.9 °C 8.9 °C 1025.3 hPa Calm   11.3 km/h 82 % 0.0 mm
11:42 12.3 °C 9.1 °C 1025.3 hPa Calm   8.0 km/h 81 % 0.0 mm
11:52 12.4 °C 9.0 °C 1024.9 hPa SSE 1.6 km/h 3.2 km/h 80 % 0.0 mm
12:02 12.9 °C 9.3 °C 1024.9 hPa Calm   4.8 km/h 79 % 0.0 mm
12:12 13.2 °C 9.4 °C 1024.9 hPa Calm   4.8 km/h 78 % 0.0 mm
12:17 13.3 °C 9.4 °C 1024.9 hPa East 3.2 km/h 6.4 km/h 77 % 0.0 mm
12:27 13.3 °C 9.4 °C 1024.9 hPa ENE 3.2 km/h 6.4 km/h 77 % 0.0 mm
12:32 13.3 °C 9.2 °C 1024.9 hPa East 1.6 km/h 6.4 km/h 76 % 0.0 mm
12:42 13.6 °C 9.6 °C 1024.9 hPa East 4.8 km/h 8.0 km/h 77 % 0.0 mm
12:47 13.8 °C 9.6 °C 1024.9 hPa ENE 6.4 km/h 8.0 km/h 76 % 0.0 mm
12:52 13.9 °C 9.3 °C 1024.6 hPa East 6.4 km/h 11.3 km/h 74 % 0.0 mm
12:57 13.9 °C 9.3 °C 1024.6 hPa NE 6.4 km/h 11.3 km/h 74 % 0.0 mm
13:02 14.2 °C 9.8 °C 1024.6 hPa East 6.4 km/h 11.3 km/h 75 % 0.0 mm
13:07 14.3 °C 9.7 °C 1024.6 hPa NNE 4.8 km/h 11.3 km/h 74 % 0.0 mm
13:17 14.5 °C 9.9 °C 1024.6 hPa ESE 1.6 km/h 9.7 km/h 74 % 0.0 mm
13:22 14.7 °C 10.1 °C 1024.6 hPa East 3.2 km/h 9.7 km/h 74 % 0.0 mm
13:32 15.1 °C 10.3 °C 1024.3 hPa ENE 6.4 km/h 9.7 km/h 73 % 0.0 mm
13:42 15.2 °C 10.2 °C 1024.3 hPa Calm   9.7 km/h 72 % 0.0 mm
13:52 15.4 °C 10.2 °C 1024.3 hPa ENE 8.0 km/h 8.0 km/h 71 % 0.0 mm
13:57 15.4 °C 10.2 °C 1024.3 hPa ENE 1.6 km/h 6.4 km/h 71 % 0.0 mm
14:02 15.7 °C 10.5 °C 1024.3 hPa Calm   9.7 km/h 71 % 0.0 mm
14:07 15.8 °C 10.1 °C 1024.3 hPa ESE 3.2 km/h 9.7 km/h 69 % 0.0 mm
14:12 15.9 °C 10.2 °C 1023.9 hPa ENE 3.2 km/h 9.7 km/h 69 % 0.0 mm
14:22 16.1 °C 10.2 °C 1023.9 hPa ENE 6.4 km/h 8.0 km/h 68 % 0.0 mm
14:32 16.3 °C 10.6 °C 1023.9 hPa Calm   6.4 km/h 69 % 0.0 mm
14:42 16.7 °C 10.8 °C 1023.9 hPa East 3.2 km/h 6.4 km/h 68 % 0.0 mm
14:52 16.9 °C 10.7 °C 1023.9 hPa East 1.6 km/h 6.4 km/h 67 % 0.0 mm
15:02 17.0 °C 10.8 °C 1024.3 hPa Calm   6.4 km/h 67 % 0.0 mm
15:22 17.1 °C 10.7 °C 1023.9 hPa ENE 3.2 km/h 8.0 km/h 66 % 0.0 mm
15:32 17.1 °C 10.5 °C 1023.9 hPa East 1.6 km/h 8.0 km/h 65 % 0.0 mm
15:42 17.2 °C 10.6 °C 1023.9 hPa NE 6.4 km/h 8.0 km/h 65 % 0.0 mm
15:52 17.2 °C 10.6 °C 1023.9 hPa East 3.2 km/h 8.0 km/h 65 % 0.0 mm
16:02 17.1 °C 10.5 °C 1023.9 hPa NE 4.8 km/h 8.0 km/h 65 % 0.0 mm
16:12 17.1 °C 10.7 °C 1023.6 hPa ENE 4.8 km/h 9.7 km/h 66 % 0.0 mm
16:17 17.1 °C 10.7 °C 1023.6 hPa East 1.6 km/h 9.7 km/h 66 % 0.0 mm
16:27 17.1 °C 10.7 °C 1023.6 hPa Calm   8.0 km/h 66 % 0.0 mm
16:32 17.1 °C 10.7 °C 1023.6 hPa NE 1.6 km/h 8.0 km/h 66 % 0.0 mm
16:42 17.2 °C 11.0 °C 1023.6 hPa Calm   3.2 km/h 67 % 0.0 mm
16:47 17.4 °C 11.2 °C 1023.6 hPa Calm   3.2 km/h 67 % 0.0 mm
16:57 17.3 °C 11.1 °C 1023.6 hPa Calm     67 % 0.0 mm
17:02 17.5 °C 11.5 °C 1023.9 hPa Calm     68 % 0.0 mm
17:12 17.1 °C 11.1 °C 1023.6 hPa Calm     68 % 0.0 mm
17:17 16.7 °C 11.0 °C 1023.6 hPa Calm     69 % 0.0 mm
17:22 16.2 °C 10.7 °C 1023.6 hPa Calm     70 % 0.0 mm
17:32 15.4 °C 10.8 °C 1023.6 hPa NE 1.6 km/h   74 % 0.0 mm
17:42 14.7 °C 10.5 °C 1023.6 hPa Calm   3.2 km/h 76 % 0.0 mm
17:47 14.4 °C 10.4 °C 1023.9 hPa Calm   3.2 km/h 77 % 0.0 mm
17:52 14.2 °C 10.6 °C 1023.9 hPa Calm   3.2 km/h 79 % 0.0 mm
17:57 14.2 °C 10.6 °C 1023.9 hPa Calm   1.6 km/h 79 % 0.0 mm
18:02 13.8 °C 10.0 °C 1023.9 hPa Calm   1.6 km/h 78 % 0.0 mm
18:12 13.3 °C 10.3 °C 1023.9 hPa Calm   1.6 km/h 82 % 0.0 mm
18:17 13.3 °C 10.3 °C 1023.9 hPa Calm   1.6 km/h 82 % 0.0 mm
18:22 13.2 °C 10.2 °C 1023.9 hPa Calm   1.6 km/h 82 % 0.0 mm
18:32 12.8 °C 10.0 °C 1024.3 hPa Calm     83 % 0.0 mm
18:42 11.9 °C 9.6 °C 1024.3 hPa Calm   1.6 km/h 86 % 0.0 mm
18:52 11.4 °C 9.5 °C 1024.3 hPa Calm   1.6 km/h 88 % 0.0 mm
19:02 11.2 °C 9.3 °C 1024.3 hPa Calm   1.6 km/h 88 % 0.0 mm
19:07 11.0 °C 9.4 °C 1024.3 hPa Calm     90 % 0.0 mm
19:17 10.6 °C 9.0 °C 1024.3 hPa Calm     90 % 0.0 mm
19:22 10.4 °C 9.0 °C 1024.3 hPa Calm     91 % 0.0 mm
19:42 10.2 °C 9.0 °C 1024.3 hPa Calm     92 % 0.0 mm
19:52 10.1 °C 9.0 °C 1024.3 hPa Calm     93 % 0.0 mm
19:57 10.3 °C 9.4 °C 1024.3 hPa Calm     94 % 0.0 mm
20:07 10.8 °C 9.7 °C 1024.3 hPa Calm     93 % 0.0 mm
20:12 10.9 °C 9.7 °C 1024.3 hPa Calm     92 % 0.0 mm
20:17 10.6 °C 9.2 °C 1024.3 hPa Calm     91 % 0.0 mm
20:27 10.2 °C 9.1 °C 1024.3 hPa Calm     93 % 0.0 mm
20:32 9.8 °C 8.6 °C 1024.3 hPa Calm     92 % 0.0 mm
20:42 9.7 °C 8.8 °C 1024.3 hPa Calm     94 % 0.0 mm
20:47 9.7 °C 8.8 °C 1024.3 hPa Calm     94 % 0.0 mm
20:52 9.4 °C 8.3 °C 1024.3 hPa Calm     93 % 0.0 mm
21:02 9.2 °C 8.3 °C 1024.3 hPa Calm     94 % 0.0 mm
21:12 9.0 °C 8.1 °C 1024.3 hPa Calm     94 % 0.0 mm
21:22 8.8 °C 8.0 °C 1024.3 hPa Calm     95 % 0.0 mm
21:27 8.8 °C 8.0 °C 1024.3 hPa Calm     95 % 0.0 mm
21:32 8.7 °C 7.9 °C 1024.3 hPa Calm     95 % 0.0 mm
21:42 8.7 °C 7.9 °C 1024.3 hPa Calm     95 % 0.0 mm
21:52 8.5 °C 7.7 °C 1024.3 hPa Calm     95 % 0.0 mm
22:02 8.4 °C 7.6 °C 1024.3 hPa Calm     95 % 0.0 mm
22:12 8.3 °C 7.5 °C 1024.3 hPa Calm     95 % 0.0 mm
22:17 8.1 °C 7.3 °C 1024.3 hPa Calm     95 % 0.0 mm
22:27 7.8 °C 7.0 °C 1024.3 hPa Calm     95 % 0.0 mm
22:32 7.9 °C 7.3 °C 1024.3 hPa Calm     96 % 0.0 mm
22:42 7.9 °C 7.3 °C 1024.3 hPa Calm     96 % 0.0 mm
22:47 7.9 °C 7.3 °C 1024.3 hPa Calm     96 % 0.0 mm
22:52 7.8 °C 7.2 °C 1024.3 hPa Calm     96 % 0.0 mm
23:02 7.6 °C 7.0 °C 1024.3 hPa Calm     96 % 0.0 mm
23:12 7.4 °C 6.8 °C 1024.3 hPa Calm     96 % 0.0 mm
23:17 7.3 °C 6.7 °C 1024.3 hPa Calm     96 % 0.0 mm
23:22 7.1 °C 6.5 °C 1024.3 hPa Calm     96 % 0.0 mm
23:27 7.0 °C 6.4 °C 1024.3 hPa Calm     96 % 0.0 mm
23:37 7.0 °C 6.6 °C 1023.9 hPa Calm     97 % 0.0 mm
23:47 6.8 °C 6.2 °C 1024.3 hPa Calm     96 % 0.0 mm
23:52 6.8 °C 6.2 °C 1024.3 hPa Calm     96 % 0.0 mm
Meteo18
Compliments of Weather Underground - 4 mb

Script developed by  Jim McMurry - jmcmurry@mwt.net Adapted for the template by  Wim van der Kuil - Leuven-Template.eu

You find our weather info also at:

European Weather Network

Weather Underground

Equipment we use:

Weather-station
Davis Vue

Weather-program
Meteohub

Weather-server
Raspberry PI 2 B+

Provider
1 and 1

Davis Vue

Meteohub

Raspberry PI 2 B+

1 and 1